GASO weather

Dignangan Airport
Sikasso Region, Mali

Public forecast

Using degrees Celsius for public forecast. Weather courtesy of forecast.io.

Closest aviation weather report (METAR) to Dignangan Airport

Report is more than 6 hours old.

Closest report is Sikasso Airport, 17.0 nm (31.4 km) SSE. Retrieved 2020/01/25 08:10 UTC (4 days ago):

GASK 250810Z 00000KT 1000 DU NSC 20/09 Q1016

Closest aviation forecast (TAF) to Dignangan Airport

Closest forecast is Bobo Dioulasso Airport, 90.4 nm (167.3 km) ESE. Retrieved 2020-01-29 00:03 UTC (4 hours ago):

TAF DFOO 282300Z 2900/2924 04010KT 4000 DU NSC BECMG 2904/2906 2500 DU BECMG 2914/2916 4000 DU